createdAt,value
2023-04-19T00:01:13.392Z,7.28
2023-04-19T00:03:41.935Z,7.53
2023-04-19T00:06:10.420Z,7.45
2023-04-19T00:08:38.786Z,7.45
2023-04-19T00:11:07.338Z,7.65
2023-04-19T00:13:35.740Z,7.97
2023-04-19T00:16:04.957Z,7.25
2023-04-19T00:18:34.705Z,7.28
2023-04-19T00:21:03.148Z,7.00
2023-04-19T00:23:31.536Z,7.05
2023-04-19T00:25:59.994Z,6.93
2023-04-19T00:28:28.316Z,7.65
2023-04-19T00:30:56.679Z,7.00
2023-04-19T00:33:25.233Z,7.57
2023-04-19T00:35:54.996Z,8.13
2023-04-19T00:38:23.386Z,7.68
2023-04-19T00:40:51.795Z,7.43
2023-04-19T00:43:20.301Z,7.03
2023-04-19T00:45:48.778Z,7.85
2023-04-19T00:48:17.182Z,6.80
2023-04-19T00:50:45.608Z,7.68
2023-04-19T00:53:15.429Z,7.05
2023-04-19T00:55:43.799Z,7.45
2023-04-19T00:58:12.249Z,7.43
2023-04-19T01:00:40.719Z,7.47
2023-04-19T01:03:10.086Z,7.07
2023-04-19T01:05:38.553Z,7.22
2023-04-19T01:08:08.408Z,7.00
2023-04-19T01:10:38.201Z,6.80
2023-04-19T01:13:06.531Z,6.78
2023-04-19T01:15:35.030Z,7.40
2023-04-19T01:18:03.541Z,6.68
2023-04-19T01:20:32.004Z,6.70
2023-04-19T01:23:01.837Z,7.47
2023-04-19T01:25:30.297Z,7.15
2023-04-19T01:27:58.686Z,7.30
2023-04-19T01:30:27.026Z,7.07
2023-04-19T01:32:55.413Z,7.15
2023-04-19T01:35:23.795Z,7.20
2023-04-19T01:37:55.487Z,6.75
2023-04-19T01:40:26.784Z,6.80
2023-04-19T01:42:55.269Z,7.70
2023-04-19T01:45:23.887Z,7.43
2023-04-19T01:47:52.606Z,7.07
2023-04-19T01:50:21.099Z,7.32
2023-04-19T01:52:49.445Z,6.65
2023-04-19T01:55:18.014Z,6.95
2023-04-19T01:57:47.730Z,7.00
2023-04-19T02:00:18.125Z,6.80
2023-04-19T02:02:46.659Z,7.38
2023-04-19T02:05:15.265Z,7.00
2023-04-19T02:07:43.605Z,7.40
2023-04-19T02:10:12.348Z,6.45
2023-04-19T02:12:42.064Z,6.50
2023-04-19T02:15:12.601Z,6.85
2023-04-19T02:17:41.553Z,6.95
2023-04-19T02:20:11.012Z,7.22
2023-04-19T02:22:39.379Z,7.05
2023-04-19T02:25:08.762Z,7.00
2023-04-19T02:27:37.151Z,7.28
2023-04-19T02:30:07.035Z,7.13
2023-04-19T02:32:36.830Z,7.25
2023-04-19T02:35:05.831Z,7.38
2023-04-19T02:37:34.230Z,7.05
2023-04-19T02:40:02.573Z,7.43
2023-04-19T02:42:31.075Z,6.80
2023-04-19T02:44:59.898Z,7.10
2023-04-19T02:47:28.408Z,6.63
2023-04-19T02:49:58.150Z,6.38
2023-04-19T02:52:27.997Z,6.75
2023-04-19T02:54:56.362Z,7.20
2023-04-19T02:57:24.749Z,6.53
2023-04-19T02:59:53.542Z,6.68
2023-04-19T03:02:22.007Z,6.55
2023-04-19T03:04:50.507Z,7.30
2023-04-19T03:07:20.621Z,6.82
2023-04-19T03:09:49.021Z,6.43
2023-04-19T03:12:17.328Z,6.85
2023-04-19T03:14:45.681Z,6.60
2023-04-19T03:17:14.397Z,6.35
2023-04-19T03:19:42.815Z,7.28
2023-04-19T03:22:11.185Z,6.45
2023-04-19T03:24:40.985Z,6.57
2023-04-19T03:27:09.366Z,6.50
2023-04-19T03:29:37.805Z,6.85
2023-04-19T03:32:06.436Z,6.68
2023-04-19T03:34:34.831Z,6.57
2023-04-19T03:37:03.225Z,6.38
2023-04-19T03:39:31.674Z,6.93
2023-04-19T03:42:01.446Z,6.90
2023-04-19T03:44:29.825Z,6.28
2023-04-19T03:46:58.223Z,6.50
2023-04-19T03:49:26.664Z,6.38
2023-04-19T03:51:55.046Z,6.65
2023-04-19T03:54:23.435Z,6.45
2023-04-19T03:56:51.882Z,6.53
2023-04-19T03:59:21.634Z,5.78
2023-04-19T04:01:50.181Z,6.00
2023-04-19T04:04:18.718Z,6.32
2023-04-19T04:06:47.402Z,5.95
2023-04-19T04:09:15.916Z,5.78
2023-04-19T04:11:44.334Z,6.60
2023-04-19T04:14:12.790Z,6.10
2023-04-19T04:16:42.842Z,5.75
2023-04-19T04:19:11.367Z,6.15
2023-04-19T04:21:39.785Z,6.45
2023-04-19T04:24:09.918Z,6.32
2023-04-19T04:26:39.526Z,6.22
2023-04-19T04:29:08.669Z,6.28
2023-04-19T04:31:37.083Z,5.97
2023-04-19T04:34:09.166Z,6.32
2023-04-19T04:36:37.739Z,6.03
2023-04-19T04:39:06.498Z,5.68
2023-04-19T04:41:36.090Z,6.32
2023-04-19T04:44:22.973Z,5.72
2023-04-19T04:46:51.704Z,5.80
2023-04-19T04:49:21.524Z,5.40
2023-04-19T04:51:49.949Z,5.75
2023-04-19T04:54:18.296Z,5.72
2023-04-19T04:56:46.717Z,6.03
2023-04-19T04:59:15.153Z,5.90
2023-04-19T05:01:43.714Z,6.10
2023-04-19T05:04:12.191Z,5.80
2023-04-19T05:06:42.350Z,6.20
2023-04-19T05:09:10.764Z,7.55
2023-04-19T05:11:39.203Z,7.35
2023-04-19T05:14:07.641Z,10.73
2023-04-19T05:16:36.128Z,10.35
2023-04-19T05:19:04.830Z,10.35
2023-04-19T05:21:34.905Z,8.73
2023-04-19T05:24:05.426Z,9.90
2023-04-19T05:26:33.893Z,9.05
2023-04-19T05:29:02.265Z,10.38
2023-04-19T05:31:30.685Z,9.20
2023-04-19T05:33:59.129Z,9.07
2023-04-19T05:36:28.282Z,7.97
2023-04-19T05:38:56.742Z,8.75
2023-04-19T05:41:26.665Z,7.97
2023-04-19T05:43:55.101Z,8.07
2023-04-19T05:46:23.508Z,7.63
2023-04-19T05:48:51.945Z,7.22
2023-04-19T05:51:20.346Z,7.78
2023-04-19T05:53:48.951Z,7.97
2023-04-19T05:56:17.386Z,7.72
2023-04-19T05:58:47.291Z,7.30
2023-04-19T06:01:16.478Z,8.10
2023-04-19T06:03:45.207Z,7.85
2023-04-19T06:06:13.674Z,7.28
2023-04-19T06:08:42.110Z,7.10
2023-04-19T06:11:20.142Z,6.97
2023-04-19T06:13:54.561Z,7.28
2023-04-19T06:16:23.226Z,7.07
2023-04-19T06:18:51.710Z,6.80
2023-04-19T06:21:20.125Z,6.47
2023-04-19T06:23:48.526Z,6.90
2023-04-19T06:26:16.980Z,7.18
2023-04-19T06:28:45.438Z,7.30
2023-04-19T06:31:15.222Z,6.63
2023-04-19T06:33:43.975Z,6.80
2023-04-19T06:36:12.487Z,7.22
2023-04-19T06:38:41.747Z,6.68
2023-04-19T06:41:10.548Z,6.50
2023-04-19T06:43:40.807Z,6.35
2023-04-19T06:46:10.024Z,6.25
2023-04-19T06:48:39.943Z,6.63
2023-04-19T06:51:08.495Z,6.00
2023-04-19T06:53:37.335Z,6.50
2023-04-19T06:56:06.804Z,6.50
2023-04-19T06:58:35.786Z,5.88
2023-04-19T07:01:05.339Z,5.63
2023-04-19T07:03:34.197Z,6.53
2023-04-19T07:06:04.211Z,6.03
2023-04-19T07:08:48.274Z,6.50
2023-04-19T07:11:18.057Z,5.80
2023-04-19T07:13:47.313Z,5.35
2023-04-19T07:16:15.856Z,5.88
2023-04-19T07:18:45.165Z,5.70
2023-04-19T07:21:14.988Z,5.82
2023-04-19T07:23:43.465Z,5.57
2023-04-19T07:26:12.076Z,5.10
2023-04-19T07:28:41.795Z,5.65
2023-04-19T07:31:16.098Z,5.00
2023-04-19T07:33:44.626Z,5.40
2023-04-19T07:36:14.500Z,5.20
2023-04-19T07:38:43.018Z,5.25
2023-04-19T07:41:11.460Z,5.45
2023-04-19T07:43:41.130Z,5.05
2023-04-19T07:46:14.041Z,5.28
2023-04-19T07:48:42.531Z,4.78
2023-04-19T07:51:12.429Z,4.97
2023-04-19T07:53:43.353Z,4.95
2023-04-19T07:56:13.056Z,5.13
2023-04-19T07:58:42.375Z,5.30
2023-04-19T08:01:12.602Z,5.32
2023-04-19T08:03:41.691Z,4.82
2023-04-19T08:06:10.220Z,4.88
2023-04-19T08:08:38.754Z,4.97
2023-04-19T08:11:08.646Z,4.88
2023-04-19T08:13:37.803Z,4.80
2023-04-19T08:18:39.252Z,4.88
2023-04-19T08:21:07.739Z,4.90
2023-04-19T08:23:47.294Z,4.60
2023-04-19T08:26:18.242Z,4.40
2023-04-19T08:28:46.754Z,4.75
2023-04-19T08:31:15.355Z,4.32
2023-04-19T08:33:43.821Z,4.63
2023-04-19T08:36:13.789Z,4.55
2023-04-19T08:38:46.751Z,4.38
2023-04-19T08:41:19.110Z,4.85
2023-04-19T08:43:47.550Z,4.85
2023-04-19T08:46:16.061Z,4.50
2023-04-19T08:48:45.109Z,4.35
2023-04-19T08:51:13.954Z,4.45
2023-04-19T08:53:42.399Z,4.05
2023-04-19T08:56:18.145Z,3.92
2023-04-19T08:59:07.592Z,4.25
2023-04-19T09:01:44.515Z,4.32
2023-04-19T09:06:44.764Z,4.30
2023-04-19T09:09:33.217Z,4.35
2023-04-19T09:12:07.110Z,4.47
2023-04-19T09:14:36.845Z,4.60
2023-04-19T09:17:17.933Z,4.10
2023-04-19T09:19:49.537Z,4.20
2023-04-19T09:22:18.306Z,4.40
2023-04-19T09:25:22.723Z,4.25
2023-04-19T09:27:37.557Z,4.07
2023-04-19T09:30:17.624Z,4.25
2023-04-19T09:32:52.844Z,4.60
2023-04-19T09:35:21.356Z,4.47
2023-04-19T09:40:32.964Z,4.25
2023-04-19T09:43:11.131Z,4.35
2023-04-19T09:45:47.910Z,3.78
2023-04-19T09:48:16.424Z,3.83
2023-04-19T09:50:59.621Z,3.78
2023-04-19T09:53:34.584Z,4.28
2023-04-19T09:56:05.413Z,4.18
2023-04-19T09:58:46.841Z,3.70
2023-04-19T10:01:20.311Z,3.90
2023-04-19T10:03:50.716Z,3.47
2023-04-19T10:08:52.313Z,4.13
2023-04-19T10:11:21.984Z,3.67
2023-04-19T10:13:50.700Z,4.05
2023-04-19T10:16:20.921Z,4.20
2023-04-19T10:18:50.441Z,3.70
2023-04-19T10:21:19.249Z,4.15
2023-04-19T10:23:47.702Z,3.90
2023-04-19T10:26:16.185Z,3.40
2023-04-19T10:28:44.568Z,3.60
2023-04-19T10:31:14.035Z,3.83
2023-04-19T10:33:43.895Z,3.72
2023-04-19T10:36:17.727Z,3.78
2023-04-19T10:38:48.375Z,3.80
2023-04-19T10:41:18.670Z,3.90
2023-04-19T10:43:48.579Z,3.85
2023-04-19T10:46:19.089Z,3.88
2023-04-19T10:48:55.589Z,3.35
2023-04-19T10:51:25.228Z,3.78
2023-04-19T10:53:58.618Z,3.80
2023-04-19T10:57:12.028Z,4.05
2023-04-19T10:59:43.040Z,3.80
2023-04-19T11:02:29.572Z,3.92
2023-04-19T11:05:03.989Z,3.55
2023-04-19T11:07:42.729Z,4.30
2023-04-19T11:10:12.479Z,3.78
2023-04-19T11:12:45.002Z,3.80
2023-04-19T11:15:13.418Z,4.15
2023-04-19T11:17:42.907Z,3.97
2023-04-19T11:20:14.782Z,3.95
2023-04-19T11:22:44.191Z,3.60
2023-04-19T11:25:13.942Z,3.67
2023-04-19T11:27:43.032Z,3.88
2023-04-19T11:30:13.405Z,3.80
2023-04-19T11:32:47.348Z,4.22
2023-04-19T11:35:19.308Z,4.53
2023-04-19T11:37:47.732Z,4.40
2023-04-19T11:40:17.086Z,4.22
2023-04-19T11:42:45.649Z,4.22
2023-04-19T11:45:25.946Z,4.10
2023-04-19T11:47:57.905Z,3.95
2023-04-19T11:50:38.960Z,3.55
2023-04-19T11:53:18.163Z,3.88
2023-04-19T11:55:47.814Z,3.75
2023-04-19T11:58:28.916Z,3.40
2023-04-19T12:01:00.508Z,3.58
2023-04-19T12:03:29.201Z,3.53
2023-04-19T12:06:00.399Z,3.90
2023-04-19T12:08:33.184Z,3.53
2023-04-19T12:11:03.229Z,3.35
2023-04-19T12:13:31.992Z,3.85
2023-04-19T12:16:00.468Z,3.88
2023-04-19T12:18:28.911Z,4.15
2023-04-19T12:21:00.160Z,3.90
2023-04-19T12:23:30.063Z,3.50
2023-04-19T12:25:58.866Z,3.80
2023-04-19T12:28:27.233Z,3.55
2023-04-19T12:30:55.690Z,3.47
2023-04-19T12:33:24.127Z,3.97
2023-04-19T12:35:52.482Z,3.67
2023-04-19T12:38:22.283Z,4.00
2023-04-19T12:40:50.655Z,4.05
2023-04-19T12:43:19.078Z,3.65
2023-04-19T12:45:47.534Z,3.50
2023-04-19T12:48:16.011Z,3.90
2023-04-19T12:50:44.410Z,3.78
2023-04-19T12:53:12.795Z,4.07
2023-04-19T12:55:43.066Z,4.20
2023-04-19T12:58:11.950Z,4.57
2023-04-19T13:00:40.343Z,4.32
2023-04-19T13:03:08.857Z,4.18
2023-04-19T13:05:37.315Z,3.90
2023-04-19T13:08:06.382Z,4.40
2023-04-19T13:10:34.805Z,4.50
2023-04-19T13:13:04.648Z,4.20
2023-04-19T13:15:34.340Z,4.30
2023-04-19T13:18:02.765Z,3.75
2023-04-19T13:20:31.245Z,4.85
2023-04-19T13:22:59.616Z,4.60
2023-04-19T13:25:28.025Z,4.70
2023-04-19T13:27:56.556Z,4.80
2023-04-19T13:30:26.356Z,4.57
2023-04-19T13:32:54.732Z,4.25
2023-04-19T13:35:23.256Z,4.57
2023-04-19T13:37:52.078Z,4.80
2023-04-19T13:40:20.739Z,4.43
2023-04-19T13:42:49.248Z,4.90
2023-04-19T13:45:17.690Z,4.50
2023-04-19T13:47:47.522Z,5.30
2023-04-19T13:50:16.247Z,4.80
2023-04-19T13:52:44.682Z,4.60
2023-04-19T13:55:13.080Z,4.95
2023-04-19T13:57:41.460Z,5.25
2023-04-19T14:00:11.307Z,4.85
2023-04-19T14:02:39.867Z,4.90
2023-04-19T14:05:11.923Z,5.13
2023-04-19T14:07:40.922Z,4.75
2023-04-19T14:10:11.182Z,5.15
2023-04-19T14:12:39.565Z,5.03
2023-04-19T14:15:09.512Z,5.70
2023-04-19T14:17:37.988Z,4.95
2023-04-19T14:20:11.172Z,5.18
2023-04-19T14:22:39.633Z,4.65
2023-04-19T14:25:08.874Z,5.53
2023-04-19T14:27:38.468Z,4.95
2023-04-19T14:30:10.243Z,5.57
2023-04-19T14:32:39.025Z,5.38
2023-04-19T14:35:08.870Z,5.10
2023-04-19T14:37:38.760Z,5.22
2023-04-19T14:40:09.120Z,5.63
2023-04-19T14:42:37.488Z,5.32
2023-04-19T14:45:07.396Z,5.20
2023-04-19T14:47:36.134Z,5.57
2023-04-19T14:50:04.563Z,5.82
2023-04-19T14:52:32.943Z,5.70
2023-04-19T14:55:02.721Z,5.60
2023-04-19T14:57:31.239Z,5.53
2023-04-19T15:00:01.206Z,5.47
2023-04-19T15:02:30.040Z,5.85
2023-04-19T15:04:58.776Z,5.68
2023-04-19T15:07:28.478Z,5.68
2023-04-19T15:09:56.956Z,5.80
2023-04-19T15:12:26.727Z,5.90
2023-04-19T15:14:55.125Z,5.85
2023-04-19T15:17:23.673Z,6.10
2023-04-19T15:19:52.075Z,5.80
2023-04-19T15:22:20.500Z,5.68
2023-04-19T15:24:48.892Z,6.10
2023-04-19T15:27:17.232Z,5.80
2023-04-19T15:29:48.146Z,5.90
2023-04-19T15:32:16.564Z,5.80
2023-04-19T15:34:44.946Z,5.75
2023-04-19T15:37:13.336Z,5.90
2023-04-19T15:39:41.715Z,5.57
2023-04-19T15:42:10.166Z,5.45
2023-04-19T15:44:38.563Z,5.40
2023-04-19T15:47:08.420Z,6.13
2023-04-19T15:49:36.844Z,6.22
2023-04-19T15:52:05.433Z,5.97
2023-04-19T15:54:34.296Z,5.50
2023-04-19T15:57:02.880Z,6.45
2023-04-19T15:59:31.654Z,5.53
2023-04-19T16:02:00.150Z,5.90
2023-04-19T16:07:00.019Z,5.43
2023-04-19T16:09:28.660Z,5.60
2023-04-19T16:11:57.111Z,5.78
2023-04-19T16:14:25.573Z,6.13
2023-04-19T16:16:54.556Z,5.70
2023-04-19T16:19:23.643Z,5.47
2023-04-19T16:21:53.418Z,5.60
2023-04-19T16:24:21.860Z,5.70
2023-04-19T16:26:50.324Z,6.03
2023-04-19T16:29:19.154Z,5.78
2023-04-19T16:31:49.762Z,6.18
2023-04-19T16:34:21.297Z,5.93
2023-04-19T16:36:49.679Z,5.70
2023-04-19T16:39:19.508Z,5.85
2023-04-19T16:41:47.984Z,6.00
2023-04-19T16:44:16.370Z,6.15
2023-04-19T16:46:44.769Z,5.80
2023-04-19T16:49:13.163Z,5.50
2023-04-19T16:51:41.640Z,5.15
2023-04-19T16:54:10.044Z,5.80
2023-04-19T16:56:39.748Z,6.13
2023-04-19T16:59:08.204Z,5.60
2023-04-19T17:01:36.648Z,5.60
2023-04-19T17:04:05.277Z,5.70
2023-04-19T17:06:33.761Z,5.45
2023-04-19T17:09:04.970Z,5.90
2023-04-19T17:11:33.434Z,5.72
2023-04-19T17:14:03.336Z,5.82
2023-04-19T17:16:31.692Z,6.03
2023-04-19T17:19:00.200Z,5.82
2023-04-19T17:21:28.715Z,5.55
2023-04-19T17:23:57.101Z,5.50
2023-04-19T17:26:25.884Z,5.57
2023-04-19T17:28:54.389Z,5.72
2023-04-19T17:31:24.349Z,5.40
2023-04-19T17:33:52.744Z,5.85
2023-04-19T17:36:21.163Z,5.90
2023-04-19T17:38:49.579Z,6.30
2023-04-19T17:41:18.055Z,5.95
2023-04-19T17:43:46.670Z,5.88
2023-04-19T17:46:15.256Z,5.90
2023-04-19T17:48:45.042Z,5.85
2023-04-19T17:51:13.436Z,5.68
2023-04-19T17:53:41.862Z,5.93
2023-04-19T17:56:10.268Z,5.80
2023-04-19T17:58:38.651Z,6.15
2023-04-19T18:01:08.924Z,5.88
2023-04-19T18:03:37.515Z,5.80
2023-04-19T18:06:09.336Z,6.07
2023-04-19T18:08:37.781Z,5.82
2023-04-19T18:11:07.041Z,6.40
2023-04-19T18:13:35.459Z,5.90
2023-04-19T18:16:05.133Z,5.85
2023-04-19T18:18:33.547Z,6.10
2023-04-19T18:21:07.246Z,6.10
2023-04-19T18:23:35.612Z,6.22
2023-04-19T18:26:04.404Z,6.25
2023-04-19T18:28:35.455Z,6.20
2023-04-19T18:31:03.963Z,6.50
2023-04-19T18:33:32.388Z,6.18
2023-04-19T18:36:00.869Z,6.32
2023-04-19T18:38:31.253Z,6.18
2023-04-19T18:40:59.979Z,6.63
2023-04-19T18:43:30.810Z,6.40
2023-04-19T18:46:00.347Z,6.32
2023-04-19T18:48:29.590Z,6.50
2023-04-19T18:50:59.434Z,6.28
2023-04-19T18:53:30.878Z,7.05
2023-04-19T18:55:59.548Z,6.78
2023-04-19T18:58:28.274Z,7.15
2023-04-19T19:00:56.959Z,6.63
2023-04-19T19:05:58.886Z,7.45
2023-04-19T19:08:27.736Z,6.82
2023-04-19T19:11:18.262Z,7.20
2023-04-19T19:13:46.076Z,7.63
2023-04-19T19:16:15.001Z,8.30
2023-04-19T19:18:45.807Z,7.90
2023-04-19T19:21:14.239Z,8.38
2023-04-19T19:23:42.968Z,8.32
2023-04-19T19:26:14.216Z,8.27
2023-04-19T19:28:43.272Z,8.02
2023-04-19T19:31:11.846Z,8.27
2023-04-19T19:33:40.924Z,8.48
2023-04-19T19:36:09.561Z,9.23
2023-04-19T19:38:38.678Z,8.10
2023-04-19T19:41:55.159Z,8.63
2023-04-19T19:43:56.934Z,8.05
2023-04-19T19:46:25.864Z,8.65
2023-04-19T19:48:57.604Z,8.13
2023-04-19T19:51:47.541Z,8.40
2023-04-19T19:54:14.582Z,8.70
2023-04-19T19:57:08.232Z,9.07
2023-04-19T19:59:34.937Z,8.75
2023-04-19T20:02:05.775Z,8.73
2023-04-19T20:04:35.517Z,9.20
2023-04-19T20:09:35.841Z,9.20
2023-04-19T20:12:04.488Z,8.48
2023-04-19T20:14:36.893Z,9.27
2023-04-19T20:17:05.511Z,8.70
2023-04-19T20:19:34.124Z,9.23
2023-04-19T20:22:02.511Z,8.82
2023-04-19T20:24:31.972Z,8.45
2023-04-19T20:27:01.336Z,8.35
2023-04-19T20:29:29.742Z,8.60
2023-04-19T20:31:59.547Z,8.88
2023-04-19T20:34:28.026Z,8.80
2023-04-19T20:36:56.965Z,8.18
2023-04-19T20:39:25.371Z,8.63
2023-04-19T20:41:54.059Z,8.85
2023-04-19T20:44:23.171Z,8.80
2023-04-19T20:46:52.532Z,9.13
2023-04-19T20:49:22.332Z,9.10
2023-04-19T20:51:51.567Z,8.68
2023-04-19T20:54:19.988Z,8.75
2023-04-19T20:56:48.936Z,8.95
2023-04-19T20:59:17.567Z,8.55
2023-04-19T21:01:46.193Z,8.55
2023-04-19T21:04:14.792Z,9.10
2023-04-19T21:06:44.708Z,9.30
2023-04-19T21:09:13.196Z,8.57
2023-04-19T21:11:41.672Z,9.30
2023-04-19T21:14:10.101Z,9.23
2023-04-19T21:16:38.553Z,9.13
2023-04-19T21:19:07.527Z,9.25
2023-04-19T21:21:35.945Z,9.10
2023-04-19T21:24:05.834Z,9.20
2023-04-19T21:26:34.381Z,9.38
2023-04-19T21:29:03.016Z,8.88
2023-04-19T21:31:32.095Z,8.55
2023-04-19T21:34:00.554Z,8.35
2023-04-19T21:36:28.982Z,8.50
2023-04-19T21:38:57.389Z,9.27
2023-04-19T21:41:27.213Z,9.25
2023-04-19T21:43:55.615Z,8.77
2023-04-19T21:46:24.202Z,9.40
2023-04-19T21:48:55.028Z,8.63
2023-04-19T21:51:24.282Z,9.10
2023-04-19T21:53:52.616Z,8.88
2023-04-19T21:56:20.983Z,9.35
2023-04-19T21:58:50.722Z,9.40
2023-04-19T22:01:19.294Z,9.52
2023-04-19T22:03:47.921Z,8.82
2023-04-19T22:06:17.222Z,9.63
2023-04-19T22:08:48.488Z,8.75
2023-04-19T22:11:17.186Z,9.02
2023-04-19T22:13:46.263Z,8.65
2023-04-19T22:16:16.777Z,9.23
2023-04-19T22:18:45.299Z,8.93
2023-04-19T22:21:13.709Z,9.32
2023-04-19T22:23:42.140Z,9.05
2023-04-19T22:26:10.599Z,8.93
2023-04-19T22:28:39.081Z,8.65
2023-04-19T22:31:07.543Z,8.95
2023-04-19T22:33:37.379Z,8.95
2023-04-19T22:36:06.520Z,8.70
2023-04-19T22:41:10.493Z,8.85
2023-04-19T22:43:39.041Z,8.98
2023-04-19T22:46:07.526Z,9.15
2023-04-19T22:48:37.935Z,8.90
2023-04-19T22:51:06.549Z,9.00
2023-04-19T22:53:35.009Z,9.32
2023-04-19T22:56:03.316Z,9.32
2023-04-19T22:58:31.987Z,8.48
2023-04-19T23:01:00.510Z,8.43
2023-04-19T23:03:28.876Z,8.85
2023-04-19T23:05:58.970Z,8.50
2023-04-19T23:08:27.704Z,9.23
2023-04-19T23:10:56.050Z,8.57
2023-04-19T23:13:24.405Z,9.13
2023-04-19T23:15:52.901Z,9.48
2023-04-19T23:18:21.831Z,8.98
2023-04-19T23:20:50.282Z,9.52
2023-04-19T23:23:20.862Z,8.52
2023-04-19T23:25:49.187Z,9.20
2023-04-19T23:28:17.600Z,8.68
2023-04-19T23:30:46.073Z,8.73
2023-04-19T23:33:14.463Z,9.05
2023-04-19T23:35:42.869Z,8.80
2023-04-19T23:38:11.349Z,9.85
2023-04-19T23:40:41.354Z,9.05
2023-04-19T23:43:09.726Z,9.25
2023-04-19T23:45:38.154Z,8.98
2023-04-19T23:48:07.323Z,9.60
2023-04-19T23:50:35.752Z,9.10
2023-04-19T23:53:05.638Z,9.45
2023-04-19T23:55:34.033Z,9.57
2023-04-19T23:58:03.814Z,9.70
